createdAt,value
2023-03-27T00:00:16.919Z,70.00
2023-03-27T00:01:11.689Z,69.92
2023-03-27T00:02:03.665Z,70.23
2023-03-27T00:02:57.716Z,70.15
2023-03-27T00:03:50.996Z,69.99
2023-03-27T00:04:42.545Z,70.22
2023-03-27T00:05:34.006Z,70.38
2023-03-27T00:06:25.661Z,70.62
2023-03-27T00:07:17.575Z,70.36
2023-03-27T00:08:09.364Z,70.63
2023-03-27T00:09:03.142Z,70.83
2023-03-27T00:09:54.846Z,70.37
2023-03-27T00:10:48.337Z,70.53
2023-03-27T00:11:39.884Z,70.63
2023-03-27T00:12:31.391Z,70.54
2023-03-27T00:13:22.953Z,70.45
2023-03-27T00:14:14.851Z,70.27
2023-03-27T00:15:07.816Z,70.50
2023-03-27T00:16:00.068Z,70.62
2023-03-27T00:16:52.287Z,70.77
2023-03-27T00:17:49.414Z,71.03
2023-03-27T00:18:41.098Z,70.44
2023-03-27T00:19:33.841Z,70.22
2023-03-27T00:20:26.871Z,70.53
2023-03-27T00:21:19.243Z,70.37
2023-03-27T00:22:10.808Z,70.37
2023-03-27T00:23:02.416Z,70.77
2023-03-27T00:23:54.561Z,70.48
2023-03-27T00:24:46.387Z,70.27
2023-03-27T00:25:37.939Z,70.56
2023-03-27T00:26:30.579Z,70.49
2023-03-27T00:27:22.169Z,70.69
2023-03-27T00:28:14.179Z,70.93
2023-03-27T00:29:06.847Z,70.84
2023-03-27T00:29:58.597Z,70.82
2023-03-27T00:30:50.115Z,71.03
2023-03-27T00:31:41.852Z,71.06
2023-03-27T00:32:34.031Z,70.94
2023-03-27T00:33:26.449Z,71.18
2023-03-27T00:34:18.143Z,71.03
2023-03-27T00:35:10.137Z,71.13
2023-03-27T00:36:02.163Z,71.24
2023-03-27T00:36:53.854Z,71.54
2023-03-27T00:37:45.487Z,71.67
2023-03-27T00:38:37.262Z,71.84
2023-03-27T00:39:29.021Z,71.67
2023-03-27T00:40:20.638Z,71.17
2023-03-27T00:41:12.715Z,71.29
2023-03-27T00:42:04.388Z,71.41
2023-03-27T00:42:57.812Z,71.29
2023-03-27T00:43:53.360Z,71.12
2023-03-27T00:44:44.954Z,71.03
2023-03-27T00:45:37.765Z,70.76
2023-03-27T00:46:43.367Z,70.96
2023-03-27T00:47:39.261Z,71.15
2023-03-27T00:48:36.926Z,71.29
2023-03-27T00:49:34.422Z,71.24
2023-03-27T00:50:42.789Z,71.53
2023-03-27T00:51:37.895Z,71.46
2023-03-27T00:52:32.389Z,71.50
2023-03-27T00:53:28.554Z,71.50
2023-03-27T00:54:27.275Z,72.13
2023-03-27T00:55:22.305Z,72.22
2023-03-27T00:56:18.382Z,72.16
2023-03-27T00:57:16.292Z,72.27
2023-03-27T00:58:16.977Z,72.28
2023-03-27T00:59:16.018Z,72.52
2023-03-27T01:00:14.357Z,72.47
2023-03-27T01:01:10.179Z,72.62
2023-03-27T01:02:10.124Z,72.77
2023-03-27T01:03:06.707Z,72.57
2023-03-27T01:04:05.723Z,72.73
2023-03-27T01:04:57.286Z,72.86
2023-03-27T01:05:50.209Z,72.91
2023-03-27T01:06:42.459Z,73.10
2023-03-27T01:07:34.343Z,73.13
2023-03-27T01:08:31.823Z,73.43
2023-03-27T01:09:26.388Z,73.43
2023-03-27T01:10:19.795Z,73.35
2023-03-27T01:11:20.635Z,73.32
2023-03-27T01:12:36.153Z,73.59
2023-03-27T01:13:49.792Z,73.87
2023-03-27T01:15:02.915Z,74.03
2023-03-27T01:16:11.650Z,73.71
2023-03-27T01:17:24.833Z,74.11
2023-03-27T01:18:22.419Z,74.11
2023-03-27T01:19:45.814Z,74.42
2023-03-27T01:21:05.966Z,74.44
2023-03-27T01:22:03.427Z,74.51
2023-03-27T01:23:35.782Z,74.57
2023-03-27T01:25:20.549Z,74.85
2023-03-27T01:26:57.540Z,74.56
2023-03-27T01:28:10.413Z,74.55
2023-03-27T01:29:21.422Z,74.77
2023-03-27T01:30:26.375Z,74.41
2023-03-27T01:31:37.846Z,74.91
2023-03-27T01:32:48.022Z,74.83
2023-03-27T01:34:01.839Z,74.72
2023-03-27T01:35:06.133Z,74.49
2023-03-27T01:36:21.811Z,74.73
2023-03-27T01:37:30.842Z,74.72
2023-03-27T01:39:00.098Z,74.91
2023-03-27T01:40:16.561Z,75.24
2023-03-27T01:41:30.363Z,75.12
2023-03-27T01:42:44.187Z,75.45
2023-03-27T01:44:03.607Z,75.48
2023-03-27T01:45:03.137Z,75.79
2023-03-27T01:46:06.550Z,75.99
2023-03-27T01:47:18.052Z,75.99
2023-03-27T01:48:22.629Z,76.39
2023-03-27T01:49:17.012Z,76.35
2023-03-27T01:50:31.942Z,76.75
2023-03-27T01:51:48.526Z,76.80
2023-03-27T01:52:46.593Z,76.81
2023-03-27T01:53:47.042Z,77.02
2023-03-27T01:54:44.575Z,76.85
2023-03-27T01:55:43.272Z,76.51
2023-03-27T01:56:53.401Z,76.25
2023-03-27T01:58:00.694Z,76.25
2023-03-27T01:59:14.096Z,76.56
2023-03-27T02:00:19.404Z,76.63
2023-03-27T02:01:14.222Z,76.91
2023-03-27T02:02:14.207Z,77.14
2023-03-27T02:03:30.023Z,76.75
2023-03-27T02:04:30.375Z,77.04
2023-03-27T02:05:32.652Z,76.92
2023-03-27T02:06:49.886Z,77.24
2023-03-27T02:07:51.444Z,77.07
2023-03-27T02:08:53.385Z,77.01
2023-03-27T02:09:51.563Z,76.78
2023-03-27T02:10:49.807Z,77.00
2023-03-27T02:11:58.987Z,77.02
2023-03-27T02:13:01.468Z,76.71
2023-03-27T02:14:12.199Z,76.16
2023-03-27T02:15:24.009Z,76.42
2023-03-27T02:16:25.070Z,76.09
2023-03-27T02:17:20.639Z,76.02
2023-03-27T02:18:20.468Z,75.82
2023-03-27T02:19:35.222Z,75.82
2023-03-27T02:20:27.035Z,75.84
2023-03-27T02:21:23.538Z,75.60
2023-03-27T02:22:16.243Z,75.55
2023-03-27T02:23:12.720Z,75.10
2023-03-27T02:24:05.943Z,75.28
2023-03-27T02:24:57.482Z,75.59
2023-03-27T02:25:51.259Z,75.52
2023-03-27T02:26:43.285Z,75.53
2023-03-27T02:27:50.158Z,75.38
2023-03-27T02:28:48.393Z,75.47
2023-03-27T02:29:53.346Z,75.44
2023-03-27T02:30:54.206Z,75.46
2023-03-27T02:32:39.488Z,75.50
2023-03-27T02:33:52.222Z,75.66
2023-03-27T02:35:01.085Z,75.81
2023-03-27T02:35:55.742Z,76.00
2023-03-27T02:37:32.577Z,75.85
2023-03-27T02:39:03.590Z,75.72
2023-03-27T02:40:25.725Z,75.42
2023-03-27T02:41:42.916Z,75.26
2023-03-27T02:43:21.762Z,75.70
2023-03-27T02:44:35.417Z,75.91
2023-03-27T02:46:02.972Z,76.06
2023-03-27T02:47:04.784Z,76.20
2023-03-27T02:48:10.018Z,76.32
2023-03-27T02:49:09.604Z,76.27
2023-03-27T02:50:19.297Z,76.37
2023-03-27T02:51:19.453Z,76.30
2023-03-27T02:52:28.299Z,75.96
2023-03-27T02:53:25.933Z,75.88
2023-03-27T02:54:26.644Z,75.69
2023-03-27T02:55:27.580Z,75.87
2023-03-27T02:56:24.505Z,75.85
2023-03-27T02:57:24.820Z,75.68
2023-03-27T02:58:50.066Z,75.74
2023-03-27T03:00:21.140Z,75.87
2023-03-27T03:01:26.919Z,76.01
2023-03-27T03:02:38.014Z,75.83
2023-03-27T03:03:38.812Z,76.01
2023-03-27T03:04:59.973Z,76.18
2023-03-27T03:06:06.859Z,76.39
2023-03-27T03:06:59.216Z,76.28
2023-03-27T03:07:54.105Z,76.47
2023-03-27T03:08:49.695Z,76.46
2023-03-27T03:09:42.663Z,76.43
2023-03-27T03:10:34.346Z,76.12
2023-03-27T03:11:26.533Z,76.15
2023-03-27T03:12:19.922Z,76.53
2023-03-27T03:13:11.676Z,76.72
2023-03-27T03:14:07.323Z,76.46
2023-03-27T03:14:58.822Z,76.46
2023-03-27T03:15:50.684Z,76.35
2023-03-27T03:16:42.296Z,76.18
2023-03-27T03:17:34.781Z,75.99
2023-03-27T03:18:26.730Z,75.99
2023-03-27T03:19:19.894Z,75.85
2023-03-27T03:20:15.264Z,76.16
2023-03-27T03:21:07.062Z,76.40
2023-03-27T03:21:59.071Z,76.29
2023-03-27T03:22:50.723Z,76.46
2023-03-27T03:23:42.830Z,76.38
2023-03-27T03:24:51.181Z,76.55
2023-03-27T03:25:44.635Z,76.91
2023-03-27T03:26:36.410Z,77.17
2023-03-27T03:27:29.466Z,77.03
2023-03-27T03:28:30.129Z,76.89
2023-03-27T03:29:22.140Z,76.91
2023-03-27T03:30:35.041Z,76.74
2023-03-27T03:31:42.884Z,76.84
2023-03-27T03:32:35.496Z,76.85
2023-03-27T03:33:31.288Z,76.99
2023-03-27T03:34:23.244Z,77.11
2023-03-27T03:35:15.213Z,77.18
2023-03-27T03:36:07.433Z,77.23
2023-03-27T03:37:01.598Z,77.27
2023-03-27T03:37:59.481Z,77.07
2023-03-27T03:38:52.490Z,77.18
2023-03-27T03:39:44.966Z,77.25
2023-03-27T03:40:37.306Z,77.03
2023-03-27T03:41:28.775Z,77.11
2023-03-27T03:42:24.487Z,77.14
2023-03-27T03:43:17.540Z,77.39
2023-03-27T03:44:10.302Z,77.60
2023-03-27T03:45:03.231Z,77.18
2023-03-27T03:45:56.232Z,77.38
2023-03-27T03:46:49.669Z,77.53
2023-03-27T03:47:46.374Z,77.45
2023-03-27T03:48:37.829Z,77.62
2023-03-27T03:49:29.309Z,77.53
2023-03-27T03:50:20.817Z,77.46
2023-03-27T03:51:12.660Z,77.49
2023-03-27T03:52:04.959Z,77.54
2023-03-27T03:52:57.720Z,78.00
2023-03-27T03:53:49.620Z,78.01
2023-03-27T03:54:41.276Z,78.01
2023-03-27T03:55:35.555Z,78.23
2023-03-27T03:56:29.347Z,78.38
2023-03-27T03:57:21.554Z,78.41
2023-03-27T03:58:34.887Z,78.51
2023-03-27T03:59:29.981Z,78.70
2023-03-27T04:00:41.767Z,78.88
2023-03-27T04:01:48.099Z,78.95
2023-03-27T04:02:41.348Z,79.08
2023-03-27T04:03:36.529Z,79.02
2023-03-27T04:04:29.389Z,79.30
2023-03-27T04:05:36.788Z,79.55
2023-03-27T04:06:31.247Z,79.77
2023-03-27T04:07:25.125Z,79.87
2023-03-27T04:08:20.728Z,80.37
2023-03-27T04:09:28.454Z,80.37
2023-03-27T04:10:29.925Z,80.11
2023-03-27T04:11:23.168Z,80.23
2023-03-27T04:12:37.727Z,80.30
2023-03-27T04:13:34.983Z,80.53
2023-03-27T04:14:37.006Z,80.60
2023-03-27T04:15:37.897Z,80.47
2023-03-27T04:16:40.828Z,80.38
2023-03-27T04:17:42.267Z,80.15
2023-03-27T04:18:35.298Z,80.26
2023-03-27T04:19:31.890Z,79.94
2023-03-27T04:20:28.881Z,80.15
2023-03-27T04:21:21.324Z,80.02
2023-03-27T04:22:17.126Z,79.84
2023-03-27T04:23:08.996Z,80.10
2023-03-27T04:24:03.040Z,80.16
2023-03-27T04:25:10.855Z,79.82
2023-03-27T04:26:03.888Z,79.99
2023-03-27T04:27:24.288Z,80.22
2023-03-27T04:28:24.056Z,79.96
2023-03-27T04:29:32.063Z,79.90
2023-03-27T04:30:25.369Z,79.96
2023-03-27T04:31:46.356Z,80.11
2023-03-27T04:32:59.851Z,80.33
2023-03-27T04:34:03.676Z,80.41
2023-03-27T04:35:15.670Z,80.61
2023-03-27T04:36:17.206Z,80.65
2023-03-27T04:37:23.350Z,80.97
2023-03-27T04:38:31.718Z,80.87
2023-03-27T04:39:24.715Z,81.13
2023-03-27T04:40:19.382Z,81.40
2023-03-27T04:41:11.297Z,81.06
2023-03-27T04:42:04.349Z,81.26
2023-03-27T04:42:57.752Z,81.32
2023-03-27T04:43:49.406Z,81.40
2023-03-27T04:44:41.897Z,81.47
2023-03-27T04:45:33.622Z,81.61
2023-03-27T04:46:25.917Z,81.64
2023-03-27T04:47:24.342Z,81.74
2023-03-27T04:48:23.349Z,81.94
2023-03-27T04:49:19.328Z,82.00
2023-03-27T04:50:32.686Z,82.00
2023-03-27T04:51:26.902Z,81.78
2023-03-27T04:52:19.664Z,81.92
2023-03-27T04:53:12.506Z,81.94
2023-03-27T04:54:10.169Z,82.01
2023-03-27T04:55:08.222Z,82.06
2023-03-27T04:56:01.393Z,82.21
2023-03-27T04:56:54.330Z,82.09
2023-03-27T04:57:47.468Z,82.10
2023-03-27T04:58:41.529Z,81.96
2023-03-27T04:59:37.731Z,81.70
2023-03-27T05:00:50.796Z,81.78
2023-03-27T05:02:14.515Z,81.96
2023-03-27T05:03:13.597Z,82.00
2023-03-27T05:04:18.705Z,82.08
2023-03-27T05:05:28.978Z,82.06
2023-03-27T05:06:21.199Z,82.24
2023-03-27T05:07:15.284Z,82.32
2023-03-27T05:08:06.790Z,82.54
2023-03-27T05:08:59.621Z,82.33
2023-03-27T05:09:57.400Z,82.62
2023-03-27T05:10:52.679Z,82.84
2023-03-27T05:11:49.685Z,82.86
2023-03-27T05:12:47.025Z,83.05
2023-03-27T05:13:40.806Z,83.02
2023-03-27T05:14:34.102Z,83.35
2023-03-27T05:15:26.312Z,83.40
2023-03-27T05:16:19.564Z,83.30
2023-03-27T05:17:16.865Z,83.47
2023-03-27T05:18:10.362Z,83.36
2023-03-27T05:19:03.827Z,83.24
2023-03-27T05:20:03.494Z,83.46
2023-03-27T05:21:00.607Z,83.21
2023-03-27T05:21:52.567Z,83.08
2023-03-27T05:22:45.048Z,82.91
2023-03-27T05:24:03.420Z,82.70
2023-03-27T05:24:54.899Z,82.68
2023-03-27T05:25:59.723Z,82.74
2023-03-27T05:26:59.690Z,82.52
2023-03-27T05:27:52.901Z,82.59
2023-03-27T05:28:44.985Z,82.51
2023-03-27T05:29:46.487Z,82.72
2023-03-27T05:30:42.523Z,82.72
2023-03-27T05:31:55.112Z,82.63
2023-03-27T05:33:04.226Z,82.61
2023-03-27T05:33:55.854Z,82.71
2023-03-27T05:34:50.714Z,82.51
2023-03-27T05:35:46.352Z,82.23
2023-03-27T05:36:38.339Z,82.14
2023-03-27T05:37:30.475Z,82.20
2023-03-27T05:38:42.522Z,81.52
2023-03-27T05:39:38.247Z,81.46
2023-03-27T05:40:34.727Z,81.59
2023-03-27T05:41:27.662Z,81.50
2023-03-27T05:42:19.449Z,81.21
2023-03-27T05:43:11.104Z,81.00
2023-03-27T05:44:03.652Z,81.16
2023-03-27T05:45:00.033Z,81.01
2023-03-27T05:45:52.212Z,81.04
2023-03-27T05:46:45.620Z,81.12
2023-03-27T05:47:54.000Z,80.97
2023-03-27T05:48:46.324Z,81.05
2023-03-27T05:49:38.195Z,80.92
2023-03-27T05:50:37.143Z,80.68
2023-03-27T05:51:34.085Z,80.72
2023-03-27T05:52:28.765Z,80.57
2023-03-27T05:53:28.628Z,80.53
2023-03-27T05:54:39.331Z,80.62
2023-03-27T05:55:34.123Z,80.48
2023-03-27T05:56:26.965Z,80.46
2023-03-27T05:57:22.184Z,80.57
2023-03-27T05:58:18.545Z,80.63
2023-03-27T05:59:11.717Z,80.67
2023-03-27T06:00:11.544Z,80.47
2023-03-27T06:01:08.048Z,80.46
2023-03-27T06:02:00.142Z,80.52
2023-03-27T06:03:04.267Z,80.40
2023-03-27T06:04:22.977Z,80.17
2023-03-27T06:05:29.918Z,80.17
2023-03-27T06:06:22.018Z,80.09
2023-03-27T06:07:21.824Z,80.06
2023-03-27T06:08:13.571Z,79.65
2023-03-27T06:09:06.407Z,79.64
2023-03-27T06:09:59.024Z,79.50
2023-03-27T06:10:59.541Z,79.31
2023-03-27T06:11:58.701Z,79.20
2023-03-27T06:13:00.213Z,79.21
2023-03-27T06:13:59.626Z,79.23
2023-03-27T06:15:08.414Z,79.03
2023-03-27T06:16:06.197Z,78.92
2023-03-27T06:17:03.747Z,79.10
2023-03-27T06:18:06.058Z,79.32
2023-03-27T06:19:01.385Z,78.99
2023-03-27T06:19:53.269Z,79.20
2023-03-27T06:20:44.731Z,79.32
2023-03-27T06:21:36.908Z,79.54
2023-03-27T06:22:28.778Z,79.67
2023-03-27T06:23:20.915Z,79.61
2023-03-27T06:24:12.376Z,79.69
2023-03-27T06:25:06.391Z,79.77
2023-03-27T06:25:58.835Z,79.77
2023-03-27T06:26:51.580Z,79.67
2023-03-27T06:27:47.451Z,79.55
2023-03-27T06:28:39.301Z,79.43
2023-03-27T06:29:31.277Z,79.28
2023-03-27T06:30:25.815Z,79.51
2023-03-27T06:31:44.050Z,79.47
2023-03-27T06:32:50.736Z,79.46
2023-03-27T06:33:43.592Z,79.25
2023-03-27T06:34:50.030Z,79.19
2023-03-27T06:36:12.456Z,79.18
2023-03-27T06:37:06.070Z,78.73
2023-03-27T06:38:04.557Z,78.23
2023-03-27T06:38:56.450Z,78.03
2023-03-27T06:39:50.599Z,77.67
2023-03-27T06:40:42.976Z,77.36
2023-03-27T06:41:35.873Z,77.40
2023-03-27T06:42:38.128Z,77.48
2023-03-27T06:43:58.884Z,77.39
2023-03-27T06:44:58.168Z,76.87
2023-03-27T06:46:09.929Z,76.86
2023-03-27T06:47:19.992Z,76.84
2023-03-27T06:48:31.841Z,76.94
2023-03-27T06:49:26.952Z,76.44
2023-03-27T06:50:20.978Z,76.10
2023-03-27T06:51:15.872Z,75.74
2023-03-27T06:52:07.842Z,75.93
2023-03-27T06:53:00.208Z,76.22
2023-03-27T06:54:07.193Z,76.26
2023-03-27T06:54:59.808Z,76.23
2023-03-27T06:55:51.539Z,76.48
2023-03-27T06:56:44.277Z,76.52
2023-03-27T06:57:45.803Z,75.92
2023-03-27T06:58:39.340Z,76.00
2023-03-27T06:59:32.365Z,76.63
2023-03-27T07:00:35.015Z,76.43
2023-03-27T07:01:55.887Z,76.10
2023-03-27T07:03:05.040Z,76.04
2023-03-27T07:04:11.434Z,76.36
2023-03-27T07:05:26.942Z,76.26
2023-03-27T07:06:19.354Z,76.34
2023-03-27T07:07:16.753Z,75.92
2023-03-27T07:09:11.527Z,76.12
2023-03-27T07:10:04.098Z,75.79
2023-03-27T07:11:10.950Z,75.90
2023-03-27T07:12:09.311Z,75.56
2023-03-27T07:13:02.791Z,75.74
2023-03-27T07:13:54.497Z,75.12
2023-03-27T07:14:51.950Z,75.30
2023-03-27T07:15:43.498Z,75.38
2023-03-27T07:16:35.744Z,75.15
2023-03-27T07:17:34.891Z,75.25
2023-03-27T07:18:37.805Z,74.43
2023-03-27T07:19:29.519Z,74.31
2023-03-27T07:20:35.108Z,74.75
2023-03-27T07:21:32.144Z,74.81
2023-03-27T07:22:24.801Z,75.10
2023-03-27T07:23:16.443Z,75.08
2023-03-27T07:24:16.484Z,74.63
2023-03-27T07:25:12.203Z,74.71
2023-03-27T07:26:07.226Z,74.27
2023-03-27T07:27:17.234Z,74.33
2023-03-27T07:28:16.917Z,74.03
2023-03-27T07:29:10.899Z,73.93
2023-03-27T07:30:03.731Z,74.01
2023-03-27T07:30:56.234Z,73.55
2023-03-27T07:31:57.633Z,73.58
2023-03-27T07:32:58.482Z,73.79
2023-03-27T07:33:51.539Z,72.95
2023-03-27T07:34:51.428Z,72.91
2023-03-27T07:36:18.742Z,72.46
2023-03-27T07:37:29.989Z,73.10
2023-03-27T07:38:41.995Z,72.82
2023-03-27T07:39:45.657Z,72.73
2023-03-27T07:40:40.633Z,72.76
2023-03-27T07:41:50.221Z,71.64
2023-03-27T07:42:51.286Z,71.90
2023-03-27T07:43:43.832Z,71.82
2023-03-27T07:44:36.053Z,72.11
2023-03-27T07:45:31.982Z,72.44
2023-03-27T07:46:24.170Z,72.45
2023-03-27T07:47:17.561Z,72.74
2023-03-27T07:48:18.666Z,73.45
2023-03-27T07:49:11.291Z,73.81
2023-03-27T07:50:03.490Z,74.52
2023-03-27T07:51:12.836Z,74.28
2023-03-27T07:52:06.548Z,74.15
2023-03-27T07:53:03.905Z,74.37
2023-03-27T07:53:58.454Z,73.82
2023-03-27T07:54:56.805Z,74.35
2023-03-27T07:55:53.637Z,73.61
2023-03-27T07:56:45.300Z,73.93
2023-03-27T07:58:07.000Z,73.90
2023-03-27T07:59:01.844Z,73.38
2023-03-27T07:59:54.636Z,73.09
2023-03-27T08:01:01.837Z,71.56
2023-03-27T08:01:55.853Z,71.20
2023-03-27T08:02:51.832Z,71.16
2023-03-27T08:03:44.559Z,70.40
2023-03-27T08:04:36.895Z,69.78
2023-03-27T08:05:31.052Z,70.26
2023-03-27T08:06:31.199Z,70.96
2023-03-27T08:07:24.461Z,70.62
2023-03-27T08:08:16.287Z,70.87
2023-03-27T08:09:21.453Z,70.31
2023-03-27T08:10:14.353Z,69.80
2023-03-27T08:11:29.681Z,69.43
2023-03-27T08:12:22.435Z,68.63
2023-03-27T08:13:21.750Z,68.46
2023-03-27T08:14:13.579Z,68.00
2023-03-27T08:15:06.887Z,67.38
2023-03-27T08:16:10.563Z,66.11
2023-03-27T08:17:12.812Z,65.75
2023-03-27T08:18:08.877Z,66.53
2023-03-27T08:19:02.069Z,66.41
2023-03-27T08:19:53.896Z,66.36
2023-03-27T08:20:47.793Z,66.75
2023-03-27T08:21:39.599Z,65.63
2023-03-27T08:22:32.059Z,65.57
2023-03-27T08:23:42.639Z,66.54
2023-03-27T08:24:53.134Z,66.46
2023-03-27T08:25:50.454Z,65.39
2023-03-27T08:26:45.733Z,64.86
2023-03-27T08:27:38.100Z,64.38
2023-03-27T08:28:35.552Z,64.11
2023-03-27T08:29:27.467Z,63.94
2023-03-27T08:30:20.200Z,64.43
2023-03-27T08:31:16.569Z,64.30
2023-03-27T08:32:10.966Z,64.19
2023-03-27T08:33:05.149Z,64.43
2023-03-27T08:33:57.280Z,64.73
2023-03-27T08:34:51.893Z,64.78
2023-03-27T08:35:48.943Z,63.95
2023-03-27T08:36:41.483Z,64.36
2023-03-27T08:37:34.832Z,64.37
2023-03-27T08:39:02.512Z,63.77
2023-03-27T08:40:02.830Z,63.93
2023-03-27T08:40:59.181Z,63.95
2023-03-27T08:41:59.185Z,64.45
2023-03-27T08:43:11.791Z,64.55
2023-03-27T08:44:03.986Z,63.37
2023-03-27T08:44:57.696Z,62.99
2023-03-27T08:46:13.369Z,62.98
2023-03-27T08:47:39.018Z,63.76
2023-03-27T08:48:56.283Z,62.50
2023-03-27T08:49:56.690Z,63.16
2023-03-27T08:51:06.346Z,63.18
2023-03-27T08:52:04.117Z,62.82
2023-03-27T08:52:55.819Z,62.66
2023-03-27T08:54:04.205Z,62.97
2023-03-27T08:55:12.160Z,61.01
2023-03-27T08:56:17.206Z,61.42
2023-03-27T08:57:31.509Z,59.89
2023-03-27T08:58:29.133Z,60.21
2023-03-27T08:59:36.887Z,60.38
2023-03-27T09:00:36.183Z,60.68
2023-03-27T09:02:16.304Z,60.15
2023-03-27T09:03:35.965Z,59.98
2023-03-27T09:04:53.945Z,59.40
2023-03-27T09:05:57.991Z,59.57
2023-03-27T09:07:07.042Z,58.87
2023-03-27T09:08:05.106Z,59.78
2023-03-27T09:09:07.010Z,59.96
2023-03-27T09:10:06.871Z,59.59
2023-03-27T09:11:19.843Z,59.27
2023-03-27T09:12:38.337Z,58.89
2023-03-27T09:13:45.187Z,57.80
2023-03-27T09:14:43.934Z,59.26
2023-03-27T09:15:54.776Z,58.34
2023-03-27T09:16:50.275Z,58.33
2023-03-27T09:18:23.445Z,58.02
2023-03-27T09:19:42.392Z,58.08
2023-03-27T09:20:45.829Z,58.75
2023-03-27T09:21:46.567Z,59.45
2023-03-27T09:22:48.599Z,59.48
2023-03-27T09:23:48.240Z,58.75
2023-03-27T09:24:46.495Z,58.34
2023-03-27T09:26:05.864Z,57.88
2023-03-27T09:27:35.060Z,57.77
2023-03-27T09:29:22.194Z,58.51
2023-03-27T09:30:27.927Z,56.84
2023-03-27T09:31:30.531Z,57.61
2023-03-27T09:32:23.691Z,57.47
2023-03-27T09:33:16.201Z,56.79
2023-03-27T09:34:15.671Z,57.45
2023-03-27T09:35:15.220Z,56.61
2023-03-27T09:36:07.190Z,56.48
2023-03-27T09:37:00.567Z,56.35
2023-03-27T09:38:01.094Z,55.59
2023-03-27T09:38:58.567Z,55.68
2023-03-27T09:39:53.251Z,55.17
2023-03-27T09:41:01.460Z,56.15
2023-03-27T09:42:06.984Z,55.92
2023-03-27T09:43:17.384Z,55.33
2023-03-27T09:44:27.716Z,56.05
2023-03-27T09:45:25.387Z,55.94
2023-03-27T09:46:28.897Z,55.61
2023-03-27T09:47:36.264Z,55.35
2023-03-27T09:48:46.885Z,55.08
2023-03-27T09:49:47.471Z,55.28
2023-03-27T09:50:47.576Z,54.84
2023-03-27T09:52:02.707Z,53.75
2023-03-27T09:53:25.186Z,53.42
2023-03-27T09:54:32.248Z,53.07
2023-03-27T09:55:31.479Z,53.36
2023-03-27T09:56:29.875Z,54.47
2023-03-27T09:57:22.344Z,53.90
2023-03-27T09:58:31.289Z,53.42
2023-03-27T09:59:33.353Z,53.64
2023-03-27T10:00:34.800Z,52.05
2023-03-27T10:01:34.558Z,50.95
2023-03-27T10:02:41.384Z,50.72
2023-03-27T10:03:42.207Z,51.15
2023-03-27T10:04:35.924Z,51.05
2023-03-27T10:05:28.018Z,50.81
2023-03-27T10:06:38.604Z,51.27
2023-03-27T10:07:41.671Z,52.50
2023-03-27T10:09:06.997Z,50.43
2023-03-27T10:10:09.234Z,50.41
2023-03-27T10:11:25.097Z,50.21
2023-03-27T10:12:22.185Z,50.87
2023-03-27T10:13:16.546Z,50.23
2023-03-27T10:14:18.724Z,49.18
2023-03-27T10:15:29.097Z,49.87
2023-03-27T10:16:22.850Z,50.47
2023-03-27T10:17:36.872Z,51.15
2023-03-27T10:18:43.937Z,51.43
2023-03-27T10:19:44.716Z,54.07
2023-03-27T10:20:37.416Z,54.85
2023-03-27T10:21:33.471Z,56.60
2023-03-27T10:22:31.996Z,57.95
2023-03-27T10:23:26.774Z,60.73
2023-03-27T10:24:26.211Z,61.98
2023-03-27T10:25:51.325Z,63.26
2023-03-27T10:26:52.328Z,61.28
2023-03-27T10:27:44.137Z,60.37
2023-03-27T10:29:21.184Z,61.28
2023-03-27T10:30:25.991Z,60.55
2023-03-27T10:31:29.528Z,59.98
2023-03-27T10:32:47.907Z,60.30
2023-03-27T10:34:06.102Z,58.54
2023-03-27T10:35:36.495Z,57.95
2023-03-27T10:36:40.411Z,55.74
2023-03-27T10:37:41.333Z,56.60
2023-03-27T10:39:17.720Z,56.09
2023-03-27T10:40:36.668Z,56.57
2023-03-27T10:41:38.862Z,56.09
2023-03-27T10:42:37.677Z,56.97
2023-03-27T10:43:40.405Z,58.30
2023-03-27T10:44:37.504Z,57.18
2023-03-27T10:45:32.814Z,57.77
2023-03-27T10:46:29.898Z,57.42
2023-03-27T10:47:34.876Z,57.04
2023-03-27T10:48:44.824Z,57.32
2023-03-27T10:49:58.734Z,57.08
2023-03-27T10:51:04.296Z,56.78
2023-03-27T10:52:32.691Z,55.93
2023-03-27T10:53:49.079Z,56.66
2023-03-27T10:55:07.877Z,56.38
2023-03-27T10:56:26.250Z,53.85
2023-03-27T10:57:37.216Z,53.22
2023-03-27T10:58:49.265Z,53.37
2023-03-27T11:00:13.597Z,50.85
2023-03-27T11:01:35.833Z,49.78
2023-03-27T11:02:43.882Z,52.40
2023-03-27T11:04:06.653Z,50.88
2023-03-27T11:05:15.419Z,49.79
2023-03-27T11:06:16.413Z,49.35
2023-03-27T11:07:20.668Z,49.39
2023-03-27T11:08:34.069Z,49.14
2023-03-27T11:09:42.570Z,48.53
2023-03-27T11:10:41.553Z,49.54
2023-03-27T11:11:42.519Z,48.86
2023-03-27T11:12:38.382Z,49.88
2023-03-27T11:13:35.562Z,50.43
2023-03-27T11:14:45.352Z,49.92
2023-03-27T11:15:51.303Z,50.11
2023-03-27T11:17:23.780Z,49.71
2023-03-27T11:19:26.914Z,48.54
2023-03-27T11:20:56.473Z,50.08
2023-03-27T11:22:07.770Z,49.30
2023-03-27T11:23:11.939Z,48.27
2023-03-27T11:24:51.935Z,49.07
2023-03-27T11:25:51.569Z,49.50
2023-03-27T11:27:03.707Z,49.25
2023-03-27T11:28:36.363Z,49.43
2023-03-27T11:29:35.741Z,49.67
2023-03-27T11:30:36.430Z,50.56
2023-03-27T11:31:45.970Z,49.93
2023-03-27T11:33:05.763Z,50.06
2023-03-27T11:34:13.141Z,49.48
2023-03-27T11:35:14.737Z,51.55
2023-03-27T11:36:35.819Z,50.21
2023-03-27T11:37:59.619Z,50.43
2023-03-27T11:39:15.224Z,49.27
2023-03-27T11:40:20.070Z,52.86
2023-03-27T11:41:15.538Z,55.63
2023-03-27T11:42:23.754Z,56.84
2023-03-27T11:43:17.940Z,57.93
2023-03-27T11:44:11.276Z,58.55
2023-03-27T11:45:27.376Z,58.89
2023-03-27T11:46:31.194Z,59.20
2023-03-27T11:47:46.670Z,59.72
2023-03-27T11:49:00.669Z,60.69
2023-03-27T11:50:16.342Z,60.81
2023-03-27T11:51:33.250Z,61.53
2023-03-27T11:52:55.452Z,63.00
2023-03-27T11:54:09.775Z,63.66
2023-03-27T11:55:37.281Z,62.92
2023-03-27T11:56:52.776Z,63.20
2023-03-27T11:58:23.546Z,62.52
2023-03-27T11:59:53.736Z,63.29
2023-03-27T12:00:54.389Z,61.82
2023-03-27T12:01:57.013Z,62.47
2023-03-27T12:03:07.615Z,64.10
2023-03-27T12:04:13.556Z,65.22
2023-03-27T12:05:57.293Z,67.65
2023-03-27T12:07:09.829Z,69.32
2023-03-27T12:08:13.567Z,70.73
2023-03-27T12:09:31.894Z,71.73
2023-03-27T12:10:47.405Z,71.88
2023-03-27T12:11:58.082Z,72.84
2023-03-27T12:13:55.041Z,72.09
2023-03-27T12:15:21.270Z,73.44
2023-03-27T12:16:16.856Z,73.53
2023-03-27T12:17:36.686Z,72.76
2023-03-27T12:19:03.935Z,73.92
2023-03-27T12:20:32.886Z,72.88
2023-03-27T12:21:56.071Z,74.32
2023-03-27T12:22:58.324Z,75.78
2023-03-27T12:24:19.007Z,77.67
2023-03-27T12:25:59.964Z,76.84
2023-03-27T12:27:42.108Z,76.82
2023-03-27T12:29:03.000Z,76.38
2023-03-27T12:30:20.607Z,77.97
2023-03-27T12:31:30.852Z,78.50
2023-03-27T12:32:23.377Z,78.01
2023-03-27T12:33:42.344Z,72.99
2023-03-27T12:34:50.350Z,77.64
2023-03-27T12:35:48.808Z,77.26
2023-03-27T12:36:48.151Z,74.82
2023-03-27T12:38:03.096Z,74.67
2023-03-27T12:38:59.213Z,75.30
2023-03-27T12:39:57.888Z,74.43
2023-03-27T12:41:02.789Z,70.96
2023-03-27T12:42:14.224Z,69.55
2023-03-27T12:43:26.598Z,67.67
2023-03-27T12:44:30.741Z,65.48
2023-03-27T12:45:27.625Z,64.25
2023-03-27T12:46:24.217Z,62.24
2023-03-27T12:47:24.188Z,62.05
2023-03-27T12:48:27.430Z,60.41
2023-03-27T12:49:19.492Z,60.62
2023-03-27T12:50:27.284Z,60.07
2023-03-27T12:51:51.000Z,61.09
2023-03-27T12:52:57.632Z,60.82
2023-03-27T12:53:56.991Z,60.64
2023-03-27T12:55:07.040Z,61.09
2023-03-27T12:56:25.516Z,61.12
2023-03-27T12:57:25.098Z,61.04
2023-03-27T12:58:34.011Z,62.15
2023-03-27T12:59:48.321Z,59.22
2023-03-27T13:00:40.733Z,57.27
2023-03-27T13:01:51.848Z,56.76
2023-03-27T13:02:59.749Z,57.24
2023-03-27T13:04:13.445Z,57.58
2023-03-27T13:05:30.349Z,55.71
2023-03-27T13:06:33.463Z,57.23
2023-03-27T13:07:41.962Z,56.70
2023-03-27T13:08:46.684Z,54.83
2023-03-27T13:10:20.555Z,55.59
2023-03-27T13:11:43.598Z,54.11
2023-03-27T13:13:06.860Z,54.88
2023-03-27T13:14:21.481Z,53.00
2023-03-27T13:15:49.548Z,52.38
2023-03-27T13:16:58.247Z,52.78
2023-03-27T13:18:27.170Z,52.30
2023-03-27T13:19:25.842Z,53.54
2023-03-27T13:21:03.535Z,55.71
2023-03-27T13:22:03.846Z,57.69
2023-03-27T13:23:28.842Z,60.02
2023-03-27T13:24:55.794Z,62.73
2023-03-27T13:26:17.355Z,69.76
2023-03-27T13:27:27.556Z,71.37